sensor_id;sensor_type;location;lat;lon;timestamp;temperature;humidity
71514;DHT22;59335;46.652;21.272;2024-03-23T00:52:10;23.97;32.22
71514;DHT22;59335;46.652;21.272;2024-03-23T00:55:12;23.94;32.19
71514;DHT22;59335;46.652;21.272;2024-03-23T00:58:14;23.98;32.16
71514;DHT22;59335;46.652;21.272;2024-03-23T01:01:16;23.97;32.20
71514;DHT22;59335;46.652;21.272;2024-03-23T01:04:18;23.96;32.20
71514;DHT22;59335;46.652;21.272;2024-03-23T01:07:20;23.94;32.20
71514;DHT22;59335;46.652;21.272;2024-03-23T01:10:22;23.94;32.23
71514;DHT22;59335;46.652;21.272;2024-03-23T01:13:23;23.96;32.22
71514;DHT22;59335;46.652;21.272;2024-03-23T01:16:25;23.96;32.28
71514;DHT22;59335;46.652;21.272;2024-03-23T01:19:27;23.97;32.25
71514;DHT22;59335;46.652;21.272;2024-03-23T01:22:29;23.97;32.25
71514;DHT22;59335;46.652;21.272;2024-03-23T01:25:30;23.97;32.20
71514;DHT22;59335;46.652;21.272;2024-03-23T01:28:32;23.96;32.25
71514;DHT22;59335;46.652;21.272;2024-03-23T01:31:34;23.93;32.34
71514;DHT22;59335;46.652;21.272;2024-03-23T01:34:36;23.97;32.23
71514;DHT22;59335;46.652;21.272;2024-03-23T01:37:38;23.97;32.26
71514;DHT22;59335;46.652;21.272;2024-03-23T01:40:39;23.96;32.25
71514;DHT22;59335;46.652;21.272;2024-03-23T01:43:41;23.94;32.26
71514;DHT22;59335;46.652;21.272;2024-03-23T01:46:43;23.96;32.23
71514;DHT22;59335;46.652;21.272;2024-03-23T01:49:46;23.96;32.26
71514;DHT22;59335;46.652;21.272;2024-03-23T01:52:48;23.96;32.23
71514;DHT22;59335;46.652;21.272;2024-03-23T01:55:50;23.97;32.24
71514;DHT22;59335;46.652;21.272;2024-03-23T01:58:53;23.97;32.28
71514;DHT22;59335;46.652;21.272;2024-03-23T02:01:54;23.96;32.28
71514;DHT22;59335;46.652;21.272;2024-03-23T02:04:58;23.96;32.25
71514;DHT22;59335;46.652;21.272;2024-03-23T02:07:59;23.94;32.26
71514;DHT22;59335;46.652;21.272;2024-03-23T02:11:01;23.96;32.23
71514;DHT22;59335;46.652;21.272;2024-03-23T02:14:03;23.94;32.24
71514;DHT22;59335;46.652;21.272;2024-03-23T02:17:04;23.94;32.28
71514;DHT22;59335;46.652;21.272;2024-03-23T02:20:07;23.94;32.25
71514;DHT22;59335;46.652;21.272;2024-03-23T02:23:16;23.93;32.22
71514;DHT22;59335;46.652;21.272;2024-03-23T02:26:18;23.94;32.26
71514;DHT22;59335;46.652;21.272;2024-03-23T02:29:20;23.94;32.23
71514;DHT22;59335;46.652;21.272;2024-03-23T02:32:22;23.93;32.18
71514;DHT22;59335;46.652;21.272;2024-03-23T02:35:24;23.93;32.17
71514;DHT22;59335;46.652;21.272;2024-03-23T02:38:25;23.93;32.14
71514;DHT22;59335;46.652;21.272;2024-03-23T02:41:27;23.93;32.20
71514;DHT22;59335;46.652;21.272;2024-03-23T02:44:29;23.91;32.19
71514;DHT22;59335;46.652;21.272;2024-03-23T02:47:31;23.97;32.17
71514;DHT22;59335;46.652;21.272;2024-03-23T02:50:33;23.94;32.20
71514;DHT22;59335;46.652;21.272;2024-03-23T02:53:35;23.94;32.18
71514;DHT22;59335;46.652;21.272;2024-03-23T02:56:37;23.93;32.21
71514;DHT22;59335;46.652;21.272;2024-03-23T02:59:39;23.94;32.24
71514;DHT22;59335;46.652;21.272;2024-03-23T03:02:41;23.93;32.23
71514;DHT22;59335;46.652;21.272;2024-03-23T03:05:43;23.93;32.22
71514;DHT22;59335;46.652;21.272;2024-03-23T03:08:45;23.93;32.23
71514;DHT22;59335;46.652;21.272;2024-03-23T03:11:46;23.93;32.27
71514;DHT22;59335;46.652;21.272;2024-03-23T03:14:48;23.91;32.31
71514;DHT22;59335;46.652;21.272;2024-03-23T03:17:50;23.91;32.20
71514;DHT22;59335;46.652;21.272;2024-03-23T03:20:54;23.93;32.23
71514;DHT22;59335;46.652;21.272;2024-03-23T03:23:56;23.91;32.12
71514;DHT22;59335;46.652;21.272;2024-03-23T03:26:58;23.91;32.18
71514;DHT22;59335;46.652;21.272;2024-03-23T03:30:00;23.91;32.11
71514;DHT22;59335;46.652;21.272;2024-03-23T03:33:10;23.93;32.18
71514;DHT22;59335;46.652;21.272;2024-03-23T03:36:13;23.90;32.21
71514;DHT22;59335;46.652;21.272;2024-03-23T03:39:15;23.91;32.23
71514;DHT22;59335;46.652;21.272;2024-03-23T03:42:17;23.88;32.15
71514;DHT22;59335;46.652;21.272;2024-03-23T03:45:19;23.91;32.26
71514;DHT22;59335;46.652;21.272;2024-03-23T03:48:20;23.88;32.18
71514;DHT22;59335;46.652;21.272;2024-03-23T03:51:22;23.91;32.25
71514;DHT22;59335;46.652;21.272;2024-03-23T03:54:24;23.91;32.18
71514;DHT22;59335;46.652;21.272;2024-03-23T03:57:26;23.91;32.17
71514;DHT22;59335;46.652;21.272;2024-03-23T04:00:28;23.91;32.18
71514;DHT22;59335;46.652;21.272;2024-03-23T04:03:30;23.90;32.20
71514;DHT22;59335;46.652;21.272;2024-03-23T04:06:32;23.87;32.17
71514;DHT22;59335;46.652;21.272;2024-03-23T04:09:34;23.90;32.18
71514;DHT22;59335;46.652;21.272;2024-03-23T04:12:37;23.88;32.13
71514;DHT22;59335;46.652;21.272;2024-03-23T04:15:38;23.88;32.12
71514;DHT22;59335;46.652;21.272;2024-03-23T04:18:41;23.87;32.19
71514;DHT22;59335;46.652;21.272;2024-03-23T04:21:42;23.90;32.15
71514;DHT22;59335;46.652;21.272;2024-03-23T04:24:44;23.87;32.15
71514;DHT22;59335;46.652;21.272;2024-03-23T04:27:46;23.90;32.18
71514;DHT22;59335;46.652;21.272;2024-03-23T04:30:48;23.87;32.14
71514;DHT22;59335;46.652;21.272;2024-03-23T04:33:50;23.88;32.16
71514;DHT22;59335;46.652;21.272;2024-03-23T04:36:52;23.87;32.17
71514;DHT22;59335;46.652;21.272;2024-03-23T04:39:54;23.87;32.20
71514;DHT22;59335;46.652;21.272;2024-03-23T04:42:55;23.88;32.21
71514;DHT22;59335;46.652;21.272;2024-03-23T04:45:57;23.88;32.18
71514;DHT22;59335;46.652;21.272;2024-03-23T04:48:59;23.88;32.17
71514;DHT22;59335;46.652;21.272;2024-03-23T04:52:02;23.91;32.20
71514;DHT22;59335;46.652;21.272;2024-03-23T04:55:05;23.90;32.11
71514;DHT22;59335;46.652;21.272;2024-03-23T04:58:08;23.91;32.09
71514;DHT22;59335;46.652;21.272;2024-03-23T05:01:11;23.91;32.09
71514;DHT22;59335;46.652;21.272;2024-03-23T05:04:12;23.93;32.02
71514;DHT22;59335;46.652;21.272;2024-03-23T05:07:14;23.96;32.04
71514;DHT22;59335;46.652;21.272;2024-03-23T05:10:16;23.94;31.97
71514;DHT22;59335;46.652;21.272;2024-03-23T05:13:18;23.97;31.99
71514;DHT22;59335;46.652;21.272;2024-03-23T05:16:20;24.00;31.93
71514;DHT22;59335;46.652;21.272;2024-03-23T05:19:22;24.02;31.89
71514;DHT22;59335;46.652;21.272;2024-03-23T05:22:24;24.04;31.93
71514;DHT22;59335;46.652;21.272;2024-03-23T05:25:26;24.07;31.95
71514;DHT22;59335;46.652;21.272;2024-03-23T05:28:27;24.07;31.92
71514;DHT22;59335;46.652;21.272;2024-03-23T05:31:31;24.08;32.02
71514;DHT22;59335;46.652;21.272;2024-03-23T05:34:33;24.09;32.03
71514;DHT22;59335;46.652;21.272;2024-03-23T05:37:35;24.14;32.02
71514;DHT22;59335;46.652;21.272;2024-03-23T05:40:36;24.17;31.97
71514;DHT22;59335;46.652;21.272;2024-03-23T05:43:41;24.18;31.98
71514;DHT22;59335;46.652;21.272;2024-03-23T05:46:43;24.22;31.91
71514;DHT22;59335;46.652;21.272;2024-03-23T05:49:49;24.22;31.86
71514;DHT22;59335;46.652;21.272;2024-03-23T05:52:53;24.25;31.74
71514;DHT22;59335;46.652;21.272;2024-03-23T05:56:01;24.29;31.75
71514;DHT22;59335;46.652;21.272;2024-03-23T05:59:06;24.32;31.64
71514;DHT22;59335;46.652;21.272;2024-03-23T06:02:08;24.33;31.56
71514;DHT22;59335;46.652;21.272;2024-03-23T06:05:12;24.40;31.51
71514;DHT22;59335;46.652;21.272;2024-03-23T06:08:14;24.45;31.45
71514;DHT22;59335;46.652;21.272;2024-03-23T06:11:16;24.49;31.40
71514;DHT22;59335;46.652;21.272;2024-03-23T06:14:18;24.51;31.31
71514;DHT22;59335;46.652;21.272;2024-03-23T06:17:20;24.59;31.31
71514;DHT22;59335;46.652;21.272;2024-03-23T06:20:21;24.63;31.22
71514;DHT22;59335;46.652;21.272;2024-03-23T06:23:23;24.69;31.12
71514;DHT22;59335;46.652;21.272;2024-03-23T06:26:25;24.73;31.13
71514;DHT22;59335;46.652;21.272;2024-03-23T06:29:26;24.77;31.12
71514;DHT22;59335;46.652;21.272;2024-03-23T06:32:28;24.82;30.96
71514;DHT22;59335;46.652;21.272;2024-03-23T06:35:32;24.86;30.98
71514;DHT22;59335;46.652;21.272;2024-03-23T06:38:34;24.90;31.06
71514;DHT22;59335;46.652;21.272;2024-03-23T06:41:36;24.87;31.00
71514;DHT22;59335;46.652;21.272;2024-03-23T06:44:38;24.94;30.97
71514;DHT22;59335;46.652;21.272;2024-03-23T06:47:40;24.95;30.96
71514;DHT22;59335;46.652;21.272;2024-03-23T06:50:42;24.98;30.93
71514;DHT22;59335;46.652;21.272;2024-03-23T06:53:44;25.06;30.92
71514;DHT22;59335;46.652;21.272;2024-03-23T06:56:46;25.03;30.94
71514;DHT22;59335;46.652;21.272;2024-03-23T06:59:48;25.10;30.83
71514;DHT22;59335;46.652;21.272;2024-03-23T07:02:49;25.14;30.90
71514;DHT22;59335;46.652;21.272;2024-03-23T07:05:51;25.20;30.85
71514;DHT22;59335;46.652;21.272;2024-03-23T07:08:53;25.18;30.86
71514;DHT22;59335;46.652;21.272;2024-03-23T07:11:58;25.25;30.82
71514;DHT22;59335;46.652;21.272;2024-03-23T07:15:00;25.24;30.89
71514;DHT22;59335;46.652;21.272;2024-03-23T07:18:02;25.28;30.88
71514;DHT22;59335;46.652;21.272;2024-03-23T07:21:04;25.30;30.82
71514;DHT22;59335;46.652;21.272;2024-03-23T07:24:09;25.32;30.85
71514;DHT22;59335;46.652;21.272;2024-03-23T07:27:10;25.31;30.88
71514;DHT22;59335;46.652;21.272;2024-03-23T07:30:12;25.35;30.85
71514;DHT22;59335;46.652;21.272;2024-03-23T07:33:15;25.37;30.95
71514;DHT22;59335;46.652;21.272;2024-03-23T07:36:16;25.41;30.86
71514;DHT22;59335;46.652;21.272;2024-03-23T07:39:18;25.39;30.87
71514;DHT22;59335;46.652;21.272;2024-03-23T07:42:20;25.41;30.90
71514;DHT22;59335;46.652;21.272;2024-03-23T07:45:21;25.42;30.92
71514;DHT22;59335;46.652;21.272;2024-03-23T07:48:23;25.45;30.91
71514;DHT22;59335;46.652;21.272;2024-03-23T07:51:25;25.43;30.92
71514;DHT22;59335;46.652;21.272;2024-03-23T07:54:27;25.46;30.92
71514;DHT22;59335;46.652;21.272;2024-03-23T07:57:29;25.48;30.96
71514;DHT22;59335;46.652;21.272;2024-03-23T08:00:31;25.48;30.97
71514;DHT22;59335;46.652;21.272;2024-03-23T08:03:33;25.49;31.00
71514;DHT22;59335;46.652;21.272;2024-03-23T08:06:35;25.52;31.04
71514;DHT22;59335;46.652;21.272;2024-03-23T08:09:36;25.53;31.04
71514;DHT22;59335;46.652;21.272;2024-03-23T08:12:38;25.55;31.02
71514;DHT22;59335;46.652;21.272;2024-03-23T08:15:40;25.55;31.04
71514;DHT22;59335;46.652;21.272;2024-03-23T08:18:43;25.55;31.07
71514;DHT22;59335;46.652;21.272;2024-03-23T08:21:45;25.57;31.07
71514;DHT22;59335;46.652;21.272;2024-03-23T08:24:46;25.55;31.07
71514;DHT22;59335;46.652;21.272;2024-03-23T08:27:48;25.59;31.03
71514;DHT22;59335;46.652;21.272;2024-03-23T08:30:50;25.59;31.09
71514;DHT22;59335;46.652;21.272;2024-03-23T08:33:52;25.59;31.10
71514;DHT22;59335;46.652;21.272;2024-03-23T08:36:54;25.61;31.13
71514;DHT22;59335;46.652;21.272;2024-03-23T08:39:55;25.59;31.15
71514;DHT22;59335;46.652;21.272;2024-03-23T08:42:57;25.59;31.17
71514;DHT22;59335;46.652;21.272;2024-03-23T08:49:08;25.61;31.28
71514;DHT22;59335;46.652;21.272;2024-03-23T08:52:10;25.61;31.29
71514;DHT22;59335;46.652;21.272;2024-03-23T08:55:11;25.61;31.24
71514;DHT22;59335;46.652;21.272;2024-03-23T08:58:13;25.62;31.32
71514;DHT22;59335;46.652;21.272;2024-03-23T09:01:19;25.61;31.34
71514;DHT22;59335;46.652;21.272;2024-03-23T09:04:21;25.59;31.36
71514;DHT22;59335;46.652;21.272;2024-03-23T09:07:22;25.61;31.43
71514;DHT22;59335;46.652;21.272;2024-03-23T09:10:24;25.59;31.38
71514;DHT22;59335;46.652;21.272;2024-03-23T09:13:26;25.58;31.43
71514;DHT22;59335;46.652;21.272;2024-03-23T09:16:29;25.61;31.41
71514;DHT22;59335;46.652;21.272;2024-03-23T09:19:31;25.59;31.40
71514;DHT22;59335;46.652;21.272;2024-03-23T09:22:33;25.61;31.40
71514;DHT22;59335;46.652;21.272;2024-03-23T09:25:39;25.59;31.47
71514;DHT22;59335;46.652;21.272;2024-03-23T09:28:41;25.58;31.47
71514;DHT22;59335;46.652;21.272;2024-03-23T09:31:42;25.57;31.50
71514;DHT22;59335;46.652;21.272;2024-03-23T09:34:44;25.55;31.56
71514;DHT22;59335;46.652;21.272;2024-03-23T09:37:46;25.53;31.56
71514;DHT22;59335;46.652;21.272;2024-03-23T09:40:50;25.49;31.62
71514;DHT22;59335;46.652;21.272;2024-03-23T09:43:54;25.52;31.65
71514;DHT22;59335;46.652;21.272;2024-03-23T09:46:56;25.46;31.64
71514;DHT22;59335;46.652;21.272;2024-03-23T09:50:00;25.49;31.69
71514;DHT22;59335;46.652;21.272;2024-03-23T09:53:02;25.42;31.69
71514;DHT22;59335;46.652;21.272;2024-03-23T09:56:04;25.45;31.70
71514;DHT22;59335;46.652;21.272;2024-03-23T09:59:06;25.42;31.76
71514;DHT22;59335;46.652;21.272;2024-03-23T10:02:08;25.41;31.79
71514;DHT22;59335;46.652;21.272;2024-03-23T10:05:22;25.41;31.87
71514;DHT22;59335;46.652;21.272;2024-03-23T10:08:25;25.39;31.88
71514;DHT22;59335;46.652;21.272;2024-03-23T10:11:27;25.35;31.91
71514;DHT22;59335;46.652;21.272;2024-03-23T10:14:31;25.35;31.94
71514;DHT22;59335;46.652;21.272;2024-03-23T10:17:33;25.34;32.02
71514;DHT22;59335;46.652;21.272;2024-03-23T10:20:35;25.32;32.00
71514;DHT22;59335;46.652;21.272;2024-03-23T10:23:38;25.31;32.06
71514;DHT22;59335;46.652;21.272;2024-03-23T10:26:40;25.27;32.07
71514;DHT22;59335;46.652;21.272;2024-03-23T10:29:42;25.28;32.10
71514;DHT22;59335;46.652;21.272;2024-03-23T10:32:44;25.27;32.08
71514;DHT22;59335;46.652;21.272;2024-03-23T10:35:48;25.24;32.16
71514;DHT22;59335;46.652;21.272;2024-03-23T10:38:51;25.24;32.17
71514;DHT22;59335;46.652;21.272;2024-03-23T10:41:56;25.22;32.22
71514;DHT22;59335;46.652;21.272;2024-03-23T10:44:59;25.21;32.19
71514;DHT22;59335;46.652;21.272;2024-03-23T10:48:01;25.21;32.19
71514;DHT22;59335;46.652;21.272;2024-03-23T10:51:06;25.20;32.17
71514;DHT22;59335;46.652;21.272;2024-03-23T10:54:09;25.17;32.23
71514;DHT22;59335;46.652;21.272;2024-03-23T10:57:20;25.15;32.20
71514;DHT22;59335;46.652;21.272;2024-03-23T11:00:23;25.17;32.26
71514;DHT22;59335;46.652;21.272;2024-03-23T11:03:36;25.14;32.23
71514;DHT22;59335;46.652;21.272;2024-03-23T11:06:39;25.15;32.29
71514;DHT22;59335;46.652;21.272;2024-03-23T11:09:41;25.14;32.32
71514;DHT22;59335;46.652;21.272;2024-03-23T11:12:46;25.08;32.30
71514;DHT22;59335;46.652;21.272;2024-03-23T11:15:48;25.10;32.29
71514;DHT22;59335;46.652;21.272;2024-03-23T11:18:50;25.10;32.31
71514;DHT22;59335;46.652;21.272;2024-03-23T11:21:53;25.10;32.33
71514;DHT22;59335;46.652;21.272;2024-03-23T11:24:55;25.13;32.35
71514;DHT22;59335;46.652;21.272;2024-03-23T11:28:10;25.11;32.39
71514;DHT22;59335;46.652;21.272;2024-03-23T11:31:14;25.07;32.40
71514;DHT22;59335;46.652;21.272;2024-03-23T11:34:16;25.07;32.36
71514;DHT22;59335;46.652;21.272;2024-03-23T11:37:19;25.08;32.39
71514;DHT22;59335;46.652;21.272;2024-03-23T11:40:21;25.08;32.40
71514;DHT22;59335;46.652;21.272;2024-03-23T11:43:24;25.06;32.40
71514;DHT22;59335;46.652;21.272;2024-03-23T11:46:26;25.07;32.37
71514;DHT22;59335;46.652;21.272;2024-03-23T11:49:29;25.07;32.42
71514;DHT22;59335;46.652;21.272;2024-03-23T11:52:31;25.03;32.39
71514;DHT22;59335;46.652;21.272;2024-03-23T11:55:44;25.03;32.42
71514;DHT22;59335;46.652;21.272;2024-03-23T11:58:46;25.04;32.46
71514;DHT22;59335;46.652;21.272;2024-03-23T12:01:50;25.03;32.46
71514;DHT22;59335;46.652;21.272;2024-03-23T12:04:51;25.00;32.49
71514;DHT22;59335;46.652;21.272;2024-03-23T12:07:54;25.01;32.44
71514;DHT22;59335;46.652;21.272;2024-03-23T12:14:07;25.03;32.51
71514;DHT22;59335;46.652;21.272;2024-03-23T12:17:13;24.98;32.49
71514;DHT22;59335;46.652;21.272;2024-03-23T12:20:15;25.03;32.51
71514;DHT22;59335;46.652;21.272;2024-03-23T12:23:17;24.97;32.52
71514;DHT22;59335;46.652;21.272;2024-03-23T12:26:19;24.98;32.49
71514;DHT22;59335;46.652;21.272;2024-03-23T12:29:21;24.98;32.52
71514;DHT22;59335;46.652;21.272;2024-03-23T12:32:24;25.00;32.53
71514;DHT22;59335;46.652;21.272;2024-03-23T12:35:25;25.00;32.52
71514;DHT22;59335;46.652;21.272;2024-03-23T12:38:27;24.98;32.53
71514;DHT22;59335;46.652;21.272;2024-03-23T12:41:29;24.98;32.56
71514;DHT22;59335;46.652;21.272;2024-03-23T12:44:30;24.97;32.53
71514;DHT22;59335;46.652;21.272;2024-03-23T12:47:33;24.94;32.55
71514;DHT22;59335;46.652;21.272;2024-03-23T12:50:35;24.95;32.59
71514;DHT22;59335;46.652;21.272;2024-03-23T12:53:37;24.94;32.61
71514;DHT22;59335;46.652;21.272;2024-03-23T12:56:38;24.93;32.59
71514;DHT22;59335;46.652;21.272;2024-03-23T12:59:40;24.94;32.55
71514;DHT22;59335;46.652;21.272;2024-03-23T13:02:42;24.95;32.59
71514;DHT22;59335;46.652;21.272;2024-03-23T13:05:52;24.88;32.61
71514;DHT22;59335;46.652;21.272;2024-03-23T13:08:54;24.90;32.68
71514;DHT22;59335;46.652;21.272;2024-03-23T13:11:56;24.88;32.63
71514;DHT22;59335;46.652;21.272;2024-03-23T13:14:58;24.87;32.62
71514;DHT22;59335;46.652;21.272;2024-03-23T13:18:00;24.90;32.64
71514;DHT22;59335;46.652;21.272;2024-03-23T13:21:04;24.90;32.62
71514;DHT22;59335;46.652;21.272;2024-03-23T13:24:06;24.88;32.67
71514;DHT22;59335;46.652;21.272;2024-03-23T13:27:07;24.90;32.65
71514;DHT22;59335;46.652;21.272;2024-03-23T13:30:10;24.88;32.68
71514;DHT22;59335;46.652;21.272;2024-03-23T13:33:11;24.86;32.69
71514;DHT22;59335;46.652;21.272;2024-03-23T13:36:13;24.87;32.71
71514;DHT22;59335;46.652;21.272;2024-03-23T13:39:15;24.87;32.69
71514;DHT22;59335;46.652;21.272;2024-03-23T13:42:20;24.86;32.69
71514;DHT22;59335;46.652;21.272;2024-03-23T13:45:21;24.86;32.68
71514;DHT22;59335;46.652;21.272;2024-03-23T13:48:25;24.84;32.72
71514;DHT22;59335;46.652;21.272;2024-03-23T13:51:26;24.84;32.74
71514;DHT22;59335;46.652;21.272;2024-03-23T13:54:28;24.83;32.76
71514;DHT22;59335;46.652;21.272;2024-03-23T13:57:31;24.84;32.76
71514;DHT22;59335;46.652;21.272;2024-03-23T14:00:32;24.79;32.75
71514;DHT22;59335;46.652;21.272;2024-03-23T14:03:34;24.80;32.79
71514;DHT22;59335;46.652;21.272;2024-03-23T14:06:36;24.79;32.79
71514;DHT22;59335;46.652;21.272;2024-03-23T14:09:38;24.79;32.85
71514;DHT22;59335;46.652;21.272;2024-03-23T14:12:40;24.79;32.79
71514;DHT22;59335;46.652;21.272;2024-03-23T14:15:43;24.77;32.76
71514;DHT22;59335;46.652;21.272;2024-03-23T14:18:48;24.74;32.85
71514;DHT22;59335;46.652;21.272;2024-03-23T14:21:49;24.74;32.85
71514;DHT22;59335;46.652;21.272;2024-03-23T14:24:51;24.76;32.85
71514;DHT22;59335;46.652;21.272;2024-03-23T14:27:53;24.74;32.91
71514;DHT22;59335;46.652;21.272;2024-03-23T14:30:55;24.74;32.86
71514;DHT22;59335;46.652;21.272;2024-03-23T14:33:57;24.72;32.91
71514;DHT22;59335;46.652;21.272;2024-03-23T14:36:59;24.72;32.88
71514;DHT22;59335;46.652;21.272;2024-03-23T14:40:01;24.70;32.94
71514;DHT22;59335;46.652;21.272;2024-03-23T14:43:04;24.67;32.88
71514;DHT22;59335;46.652;21.272;2024-03-23T14:49:14;24.69;32.88
71514;DHT22;59335;46.652;21.272;2024-03-23T14:52:20;24.69;32.94
71514;DHT22;59335;46.652;21.272;2024-03-23T14:55:21;24.66;32.95
71514;DHT22;59335;46.652;21.272;2024-03-23T14:58:23;24.66;32.92
71514;DHT22;59335;46.652;21.272;2024-03-23T15:01:26;24.65;32.93
71514;DHT22;59335;46.652;21.272;2024-03-23T15:04:28;24.65;32.96
71514;DHT22;59335;46.652;21.272;2024-03-23T15:07:33;24.67;32.96
71514;DHT22;59335;46.652;21.272;2024-03-23T15:10:35;24.62;32.94
71514;DHT22;59335;46.652;21.272;2024-03-23T15:13:37;24.62;33.00
71514;DHT22;59335;46.652;21.272;2024-03-23T15:16:39;24.62;32.94
71514;DHT22;59335;46.652;21.272;2024-03-23T15:19:41;24.62;32.93
71514;DHT22;59335;46.652;21.272;2024-03-23T15:22:44;24.60;33.02
71514;DHT22;59335;46.652;21.272;2024-03-23T15:25:45;24.60;32.96
71514;DHT22;59335;46.652;21.272;2024-03-23T15:28:48;24.60;32.94
71514;DHT22;59335;46.652;21.272;2024-03-23T15:31:59;24.57;33.05
71514;DHT22;59335;46.652;21.272;2024-03-23T15:35:01;24.55;33.02
71514;DHT22;59335;46.652;21.272;2024-03-23T15:38:03;24.57;33.03
71514;DHT22;59335;46.652;21.272;2024-03-23T15:41:05;24.56;33.05
71514;DHT22;59335;46.652;21.272;2024-03-23T15:44:07;24.55;33.01
71514;DHT22;59335;46.652;21.272;2024-03-23T15:47:08;24.53;33.06
71514;DHT22;59335;46.652;21.272;2024-03-23T15:50:10;24.53;33.09
71514;DHT22;59335;46.652;21.272;2024-03-23T15:53:12;24.55;33.12
71514;DHT22;59335;46.652;21.272;2024-03-23T15:56:14;24.53;33.06
71514;DHT22;59335;46.652;21.272;2024-03-23T15:59:15;24.52;33.12
71514;DHT22;59335;46.652;21.272;2024-03-23T16:02:17;24.51;33.12
71514;DHT22;59335;46.652;21.272;2024-03-23T16:05:18;24.49;33.12
71514;DHT22;59335;46.652;21.272;2024-03-23T16:08:20;24.49;33.07
71514;DHT22;59335;46.652;21.272;2024-03-23T16:11:22;24.48;33.10
71514;DHT22;59335;46.652;21.272;2024-03-23T16:14:24;24.49;33.15
71514;DHT22;59335;46.652;21.272;2024-03-23T16:17:26;24.48;33.16
71514;DHT22;59335;46.652;21.272;2024-03-23T16:20:28;24.46;33.15
71514;DHT22;59335;46.652;21.272;2024-03-23T16:23:32;24.46;33.16
71514;DHT22;59335;46.652;21.272;2024-03-23T16:26:34;24.46;33.11
71514;DHT22;59335;46.652;21.272;2024-03-23T16:29:35;24.43;33.19
71514;DHT22;59335;46.652;21.272;2024-03-23T16:32:37;24.45;33.13
71514;DHT22;59335;46.652;21.272;2024-03-23T16:35:40;24.43;33.21
71514;DHT22;59335;46.652;21.272;2024-03-23T16:38:42;24.45;33.19
71514;DHT22;59335;46.652;21.272;2024-03-23T16:41:43;24.40;33.22
71514;DHT22;59335;46.652;21.272;2024-03-23T16:44:45;24.43;33.25
71514;DHT22;59335;46.652;21.272;2024-03-23T16:47:47;24.40;33.23
71514;DHT22;59335;46.652;21.272;2024-03-23T16:50:49;24.39;33.25
71514;DHT22;59335;46.652;21.272;2024-03-23T16:53:51;24.40;33.28
71514;DHT22;59335;46.652;21.272;2024-03-23T16:56:54;24.38;33.23
71514;DHT22;59335;46.652;21.272;2024-03-23T16:59:55;24.40;33.24
71514;DHT22;59335;46.652;21.272;2024-03-23T17:02:57;24.38;33.28
71514;DHT22;59335;46.652;21.272;2024-03-23T17:06:02;24.35;33.29
71514;DHT22;59335;46.652;21.272;2024-03-23T17:09:06;24.40;33.30
71514;DHT22;59335;46.652;21.272;2024-03-23T17:12:08;24.36;33.31
71514;DHT22;59335;46.652;21.272;2024-03-23T17:15:10;24.36;33.32
71514;DHT22;59335;46.652;21.272;2024-03-23T17:18:13;24.36;33.30
71514;DHT22;59335;46.652;21.272;2024-03-23T17:21:14;24.35;33.38
71514;DHT22;59335;46.652;21.272;2024-03-23T17:24:16;24.36;33.30
71514;DHT22;59335;46.652;21.272;2024-03-23T17:27:18;24.35;33.35
71514;DHT22;59335;46.652;21.272;2024-03-23T17:30:20;24.32;33.33
71514;DHT22;59335;46.652;21.272;2024-03-23T17:33:22;24.32;33.35
71514;DHT22;59335;46.652;21.272;2024-03-23T17:36:25;24.32;33.38
71514;DHT22;59335;46.652;21.272;2024-03-23T17:39:31;24.30;33.36
71514;DHT22;59335;46.652;21.272;2024-03-23T17:42:35;24.29;33.31
71514;DHT22;59335;46.652;21.272;2024-03-23T17:45:36;24.30;33.32
71514;DHT22;59335;46.652;21.272;2024-03-23T17:48:38;24.29;33.34
71514;DHT22;59335;46.652;21.272;2024-03-23T17:51:40;24.29;33.34
71514;DHT22;59335;46.652;21.272;2024-03-23T17:54:42;24.28;33.36
71514;DHT22;59335;46.652;21.272;2024-03-23T17:57:43;24.28;33.40
71514;DHT22;59335;46.652;21.272;2024-03-23T18:00:45;24.26;33.33
71514;DHT22;59335;46.652;21.272;2024-03-23T18:03:53;24.28;33.33
71514;DHT22;59335;46.652;21.272;2024-03-23T18:06:55;24.26;33.39
71514;DHT22;59335;46.652;21.272;2024-03-23T18:09:56;24.25;33.40
71514;DHT22;59335;46.652;21.272;2024-03-23T18:12:58;24.26;33.36
71514;DHT22;59335;46.652;21.272;2024-03-23T18:16:00;24.25;33.32
71514;DHT22;59335;46.652;21.272;2024-03-23T18:19:01;24.24;33.35
71514;DHT22;59335;46.652;21.272;2024-03-23T18:22:03;24.24;33.34
71514;DHT22;59335;46.652;21.272;2024-03-23T18:25:05;24.22;33.32
71514;DHT22;59335;46.652;21.272;2024-03-23T18:28:07;24.22;33.35
71514;DHT22;59335;46.652;21.272;2024-03-23T18:31:09;24.22;33.37
71514;DHT22;59335;46.652;21.272;2024-03-23T18:34:10;24.24;33.38
71514;DHT22;59335;46.652;21.272;2024-03-23T18:37:12;24.19;33.38
71514;DHT22;59335;46.652;21.272;2024-03-23T18:40:14;24.21;33.35
71514;DHT22;59335;46.652;21.272;2024-03-23T18:43:16;24.19;33.35
71514;DHT22;59335;46.652;21.272;2024-03-23T18:46:18;24.19;33.37
71514;DHT22;59335;46.652;21.272;2024-03-23T18:49:24;24.18;33.41
71514;DHT22;59335;46.652;21.272;2024-03-23T18:52:26;24.17;33.38
71514;DHT22;59335;46.652;21.272;2024-03-23T18:55:28;24.17;33.45
71514;DHT22;59335;46.652;21.272;2024-03-23T18:58:30;24.14;33.42
71514;DHT22;59335;46.652;21.272;2024-03-23T19:01:32;24.15;33.45
71514;DHT22;59335;46.652;21.272;2024-03-23T19:04:37;24.17;33.45
71514;DHT22;59335;46.652;21.272;2024-03-23T19:07:40;24.15;33.43
71514;DHT22;59335;46.652;21.272;2024-03-23T19:10:41;24.14;33.42
71514;DHT22;59335;46.652;21.272;2024-03-23T19:13:43;24.17;33.42
71514;DHT22;59335;46.652;21.272;2024-03-23T19:16:44;24.15;33.42
71514;DHT22;59335;46.652;21.272;2024-03-23T19:19:46;24.14;33.45
71514;DHT22;59335;46.652;21.272;2024-03-23T19:22:49;24.12;33.40
71514;DHT22;59335;46.652;21.272;2024-03-23T19:25:55;24.12;33.42
71514;DHT22;59335;46.652;21.272;2024-03-23T19:28:58;24.12;33.39
71514;DHT22;59335;46.652;21.272;2024-03-23T19:32:00;24.09;33.39
71514;DHT22;59335;46.652;21.272;2024-03-23T19:35:03;24.12;33.36
71514;DHT22;59335;46.652;21.272;2024-03-23T19:38:05;24.11;33.31
71514;DHT22;59335;46.652;21.272;2024-03-23T19:41:07;24.08;33.34
71514;DHT22;59335;46.652;21.272;2024-03-23T19:44:09;24.11;33.40
71514;DHT22;59335;46.652;21.272;2024-03-23T19:47:11;24.08;33.32
71514;DHT22;59335;46.652;21.272;2024-03-23T19:50:13;24.09;33.36
71514;DHT22;59335;46.652;21.272;2024-03-23T19:53:15;24.11;33.37